Time;durP1;ratioP1;P1;durP2;ratioP2;P2;SDS_P1;SDS_P2;PMS_P1;PMS_P2;Temp;Humidity;BMP_temperature;BMP_pressure;BME280_temperature;BME280_humidity;BME280_pressure;Samples;Min_cycle;Max_cycle;Signal;HPM_P1;HPM_P2
2024/02/16 00:00:23;;;;;;;8.13;6.38;;;15.00;99.90;;;15.12;82.36;100770.34;5013762;28;20053;-68
2024/02/16 00:02:52;;;;;;;10.30;6.07;;;14.90;99.90;;;15.22;82.17;100766.53;4996671;28;20149;-67
2024/02/16 00:05:20;;;;;;;11.07;6.72;;;15.00;99.90;;;15.13;81.93;100742.78;5013992;28;20048;-67
2024/02/16 00:07:49;;;;;;;8.23;6.63;;;15.00;99.90;;;15.31;81.76;100769.84;5013761;28;20080;-67
2024/02/16 00:10:19;;;;;;;9.52;7.05;;;15.00;99.90;;;15.33;81.47;100762.69;5014006;28;20116;-67
2024/02/16 00:12:48;;;;;;;6.75;6.05;;;15.10;99.90;;;15.20;81.40;100744.38;5013776;28;20042;-68
2024/02/16 00:15:16;;;;;;;7.13;6.43;;;15.00;99.90;;;15.35;81.16;100770.63;5013614;28;20056;-68
2024/02/16 00:17:46;;;;;;;10.52;6.20;;;15.10;99.90;;;14.95;80.77;100685.53;5013422;28;20597;-67
2024/02/16 00:20:15;;;;;;;10.45;6.70;;;15.10;99.90;;;15.28;81.09;100751.28;5013856;28;20128;-67
2024/02/16 00:22:44;;;;;;;7.35;6.60;;;15.00;99.90;;;15.31;81.14;100755.66;5013508;28;20104;-67
2024/02/16 00:25:12;;;;;;;7.25;6.07;;;15.00;99.90;;;15.25;81.10;100751.34;5013390;28;20100;-68
2024/02/16 00:27:41;;;;;;;8.70;6.57;;;15.00;99.90;;;15.29;80.97;100747.69;5013358;28;20042;-67
2024/02/16 00:30:11;;;;;;;8.82;6.25;;;15.00;99.90;;;15.31;80.94;100742.34;5013528;28;20495;-67
2024/02/16 00:32:40;;;;;;;9.25;6.30;;;15.00;99.90;;;15.34;80.72;100742.25;5013210;28;20050;-67
2024/02/16 00:35:11;;;;;;;10.88;6.40;;;15.00;99.90;;;15.25;81.20;100743.34;5013498;28;20041;-67
2024/02/16 00:37:39;;;;;;;9.73;6.78;;;15.00;99.90;;;15.21;81.01;100755.00;5012212;28;20042;-67
2024/02/16 00:40:10;;;;;;;10.80;6.97;;;14.90;99.90;;;15.10;81.11;100746.41;5013128;28;20531;-67
2024/02/16 00:42:38;;;;;;;10.45;7.20;;;14.90;99.90;;;15.03;81.13;100749.25;5013071;28;20053;-67
2024/02/16 00:45:08;;;;;;;12.68;6.97;;;14.90;99.90;;;15.09;81.46;100754.44;5013066;28;20046;-67
2024/02/16 00:47:37;;;;;;;14.55;6.93;;;14.80;99.90;;;15.13;81.12;100735.69;5013280;28;20100;-67
2024/02/16 00:50:08;;;;;;;9.70;6.93;;;14.90;99.90;;;15.16;81.12;100743.59;5012931;28;20045;-68
2024/02/16 00:52:39;;;;;;;8.43;6.68;;;14.90;99.90;;;15.04;81.21;100727.91;4995585;28;20060;-68
2024/02/16 00:55:09;;;;;;;10.38;6.47;;;14.80;99.90;;;14.94;81.27;100726.38;5012830;28;20125;-67
2024/02/16 00:57:38;;;;;;;9.13;6.10;;;14.80;99.90;;;14.99;81.22;100713.84;5013011;28;20049;-67
2024/02/16 01:00:09;;;;;;;9.85;7.15;;;14.80;99.90;;;14.99;81.53;100721.81;5013062;28;20419;-67
2024/02/16 01:02:38;;;;;;;13.65;6.63;;;14.70;99.90;;;15.09;81.39;100733.13;5013392;28;20052;-67
2024/02/16 01:05:09;;;;;;;8.95;6.40;;;14.80;99.90;;;15.02;81.39;100729.72;5012831;28;20115;-67
2024/02/16 01:07:42;;;;;;;9.35;6.57;;;14.80;99.90;;;14.99;81.17;100729.81;5013041;28;20132;-67
2024/02/16 01:10:12;;;;;;;10.27;7.00;;;14.70;99.90;;;15.00;81.42;100714.72;5012910;28;20496;-67
2024/02/16 01:12:40;;;;;;;9.55;7.45;;;14.70;99.90;;;15.04;81.31;100711.91;4995254;28;20461;-67
2024/02/16 01:15:11;;;;;;;9.80;7.40;;;14.70;99.90;;;15.10;81.14;100705.56;4994923;28;20042;-67
2024/02/16 01:17:40;;;;;;;9.77;7.10;;;14.80;99.90;;;14.97;81.18;100705.00;5012764;28;20096;-67
2024/02/16 01:20:11;;;;;;;9.32;6.75;;;14.80;99.90;;;15.00;80.74;100696.06;5012656;28;20045;-67
2024/02/16 01:22:42;;;;;;;11.80;7.40;;;14.80;99.90;;;14.96;81.18;100697.91;4995318;28;20062;-67
2024/02/16 01:25:11;;;;;;;10.60;6.82;;;14.80;99.90;;;15.03;80.79;100694.19;4995098;28;20050;-67
2024/02/16 01:27:40;;;;;;;11.98;6.95;;;14.80;99.90;;;15.00;80.99;100690.75;5012370;28;20499;-68
2024/02/16 01:30:11;;;;;;;15.32;7.40;;;14.80;99.90;;;14.42;80.44;100587.47;5012192;28;20096;-67
2024/02/16 01:32:40;;;;;;;20.80;7.90;;;14.80;99.90;;;15.12;80.49;100709.06;4994912;28;20060;-68
2024/02/16 01:35:09;;;;;;;12.68;7.50;;;14.90;99.90;;;15.07;80.62;100713.63;5011935;28;20559;-67
2024/02/16 01:37:37;;;;;;;10.82;7.65;;;14.80;99.90;;;15.08;80.46;100705.59;5012203;28;20049;-67
2024/02/16 01:40:13;;;;;;;12.63;7.80;;;14.80;99.90;;;15.07;80.27;100710.97;5012315;28;20513;-67
2024/02/16 01:42:42;;;;;;;10.43;7.03;;;14.90;99.90;;;15.11;80.30;100700.22;5012085;28;20042;-67
2024/02/16 01:45:12;;;;;;;10.60;6.63;;;14.90;99.90;;;15.10;80.12;100698.44;5011949;28;20260;-67
2024/02/16 01:47:46;;;;;;;10.55;6.72;;;14.90;99.90;;;15.14;80.23;100691.25;5012557;28;20111;-67
2024/02/16 01:50:17;;;;;;;9.00;6.95;;;14.90;99.90;;;15.00;80.05;100672.94;5011645;28;20042;-67
2024/02/16 01:52:47;;;;;;;10.65;7.43;;;14.80;99.90;;;14.92;79.84;100664.31;4994650;28;20050;-67
2024/02/16 01:55:17;;;;;;;11.05;6.95;;;14.80;99.90;;;14.97;80.34;100691.69;5011806;28;20049;-67
2024/02/16 01:57:47;;;;;;;11.35;7.13;;;14.80;99.90;;;14.90;80.28;100660.81;5012136;28;20052;-68
2024/02/16 02:00:17;;;;;;;12.52;7.05;;;14.80;99.90;;;14.95;80.87;100690.84;4994695;28;20322;-67
2024/02/16 02:02:47;;;;;;;8.43;6.75;;;14.70;99.90;;;15.08;80.90;100700.28;5011751;28;20460;-67
2024/02/16 02:05:16;;;;;;;10.65;6.10;;;14.80;99.90;;;15.08;80.86;100708.25;5011822;28;20041;-67
2024/02/16 02:07:45;;;;;;;9.65;6.80;;;14.80;99.90;;;15.12;80.60;100701.94;5011601;28;20414;-67
2024/02/16 02:10:13;;;;;;;9.15;6.88;;;14.80;99.90;;;15.07;80.68;100705.66;5011759;28;20471;-67
2024/02/16 02:12:44;;;;;;;11.05;7.20;;;14.80;99.90;;;15.09;80.76;100704.72;5011433;28;20041;-67
2024/02/16 02:15:13;;;;;;;10.95;6.97;;;14.80;99.90;;;14.87;80.75;100663.53;5011749;28;20041;-67
2024/02/16 02:17:41;;;;;;;13.80;6.93;;;14.80;99.90;;;14.97;80.88;100694.34;5011514;28;20103;-68
2024/02/16 02:20:10;;;;;;;8.68;6.75;;;14.70;99.90;;;14.89;80.79;100663.47;5011365;28;20077;-68
2024/02/16 02:22:41;;;;;;;9.02;6.57;;;14.80;99.90;;;14.50;80.83;100605.94;5011469;28;20053;-68
2024/02/16 02:27:59;;;;;;;10.32;6.43;;;14.70;99.90;;;14.91;81.24;100686.50;5157753;22;20352;-70
2024/02/16 02:30:27;;;;;;;14.27;7.43;;;14.70;99.90;;;14.86;81.67;100675.09;4971847;28;20066;-70
2024/02/16 02:32:56;;;;;;;11.90;6.88;;;14.60;99.90;;;14.92;81.50;100685.63;4971651;28;20508;-69
2024/02/16 02:35:25;;;;;;;12.40;6.78;;;14.60;99.90;;;14.86;81.26;100674.22;4971305;28;20458;-69
2024/02/16 02:37:54;;;;;;;8.68;6.95;;;14.70;99.90;;;14.90;81.58;100679.44;4971361;28;20380;-70
2024/02/16 02:40:23;;;;;;;9.35;6.50;;;14.60;99.90;;;14.90;81.38;100682.13;4971539;28;20043;-69
2024/02/16 02:42:51;;;;;;;8.73;7.13;;;14.70;99.90;;;14.94;81.45;100678.44;4971360;28;20043;-69
2024/02/16 02:45:20;;;;;;;11.23;6.65;;;14.60;99.90;;;14.92;81.53;100687.41;4971312;28;20047;-70
2024/02/16 02:47:48;;;;;;;10.40;6.78;;;14.60;99.90;;;14.79;81.57;100662.00;4971362;28;20138;-70
2024/02/16 02:50:17;;;;;;;12.80;7.30;;;14.60;99.90;;;14.70;81.50;100641.78;4971271;28;20047;-70
2024/02/16 02:52:46;;;;;;;12.73;7.57;;;14.60;99.90;;;14.71;81.57;100643.50;4971189;28;20047;-70
2024/02/16 02:55:16;;;;;;;9.07;6.50;;;14.60;99.90;;;14.91;81.74;100662.53;4971154;28;20042;-70
2024/02/16 02:57:45;;;;;;;10.82;7.15;;;14.60;99.90;;;14.71;81.54;100630.19;4971535;28;20043;-70
2024/02/16 03:00:15;;;;;;;10.40;7.82;;;14.60;99.90;;;14.88;81.81;100670.63;4971670;28;20518;-71
2024/02/16 03:02:44;;;;;;;12.43;7.82;;;14.60;99.90;;;14.86;82.05;100664.47;4975264;28;20047;-70
2024/02/16 03:05:13;;;;;;;10.07;7.25;;;14.60;99.90;;;14.79;82.07;100656.66;4975685;28;20433;-70
2024/02/16 03:07:41;;;;;;;10.77;7.03;;;14.60;99.90;;;14.79;82.02;100649.53;4975162;28;20113;-70
2024/02/16 03:10:10;;;;;;;9.05;7.05;;;14.60;99.90;;;14.82;82.17;100651.25;4975189;28;20129;-70
2024/02/16 03:12:40;;;;;;;7.78;6.97;;;14.60;99.90;;;14.83;82.19;100648.53;4975628;28;20047;-71
2024/02/16 03:15:09;;;;;;;12.07;7.77;;;14.60;99.90;;;14.80;82.08;100645.09;4974974;28;20046;-70
2024/02/16 03:17:38;;;;;;;8.52;7.00;;;14.60;99.90;;;14.84;82.08;100646.75;4975036;28;20071;-69
2024/02/16 03:20:09;;;;;;;11.48;7.40;;;14.50;99.90;;;14.84;81.96;100646.75;4975008;28;20106;-70
2024/02/16 03:22:37;;;;;;;8.48;6.70;;;14.50;99.90;;;14.79;82.06;100652.19;4975552;28;20117;-70
2024/02/16 03:25:06;;;;;;;8.32;7.05;;;14.60;99.90;;;14.77;82.29;100643.38;4974883;28;20432;-70
2024/02/16 03:27:34;;;;;;;9.50;7.28;;;14.60;99.90;;;14.77;82.16;100643.38;4975148;28;20074;-70
2024/02/16 03:30:06;;;;;;;10.38;7.72;;;14.50;99.90;;;14.81;82.40;100649.47;4974948;28;20053;-70
2024/02/16 03:32:35;;;;;;;9.00;7.35;;;14.60;99.90;;;14.75;82.48;100650.50;4974919;28;20126;-69
2024/02/16 03:35:03;;;;;;;13.25;7.68;;;14.50;99.90;;;14.75;82.35;100647.00;4974751;28;20446;-70
2024/02/16 03:37:32;;;;;;;11.13;8.00;;;14.50;99.90;;;14.70;82.26;100631.13;4975083;28;20051;-70
2024/02/16 03:40:00;;;;;;;12.88;7.55;;;14.50;99.90;;;14.69;82.53;100634.69;4975037;28;20047;-70
2024/02/16 03:42:29;;;;;;;9.68;7.50;;;14.40;99.90;;;14.66;82.51;100628.56;4974964;28;20060;-69
2024/02/16 03:44:57;;;;;;;10.60;7.40;;;14.40;99.90;;;14.71;82.50;100640.00;4974631;28;20038;-70
2024/02/16 03:47:27;;;;;;;15.98;7.95;;;14.40;99.90;;;14.66;82.80;100633.91;4974909;28;20043;-69
2024/02/16 03:49:56;;;;;;;8.55;7.03;;;14.40;99.90;;;14.68;82.77;100645.38;4974535;28;20049;-69
2024/02/16 03:52:24;;;;;;;10.02;6.95;;;14.40;99.90;;;14.64;82.83;100644.59;4974727;28;20050;-69
2024/02/16 03:54:52;;;;;;;9.07;7.50;;;14.40;99.90;;;14.58;82.90;100646.50;4974408;28;20038;-69
2024/02/16 03:57:21;;;;;;;8.70;7.32;;;14.40;99.90;;;14.62;83.18;100642.88;4974587;28;20054;-70
2024/02/16 03:59:49;;;;;;;10.95;7.72;;;14.30;99.90;;;14.52;83.28;100636.91;4974799;28;20142;-69
2024/02/16 04:02:18;;;;;;;11.13;7.50;;;14.30;99.90;;;14.58;83.53;100651.84;4957010;28;20508;-69
2024/02/16 04:04:48;;;;;;;11.77;8.02;;;14.30;99.90;;;14.58;83.81;100641.19;4974398;28;20047;-69
2024/02/16 04:07:17;;;;;;;11.18;8.18;;;14.30;99.90;;;14.58;83.51;100658.03;4974246;28;20138;-70
2024/02/16 04:09:46;;;;;;;12.60;8.10;;;14.30;99.90;;;14.41;84.01;100661.13;4974689;28;20053;-72
2024/02/16 04:12:14;;;;;;;15.40;7.53;;;14.20;99.90;;;14.39;84.07;100640.75;4973946;28;20544;-70
2024/02/16 04:14:43;;;;;;;11.13;7.80;;;14.20;99.90;;;14.43;84.50;100645.09;4973928;28;20065;-70
2024/02/16 04:17:12;;;;;;;11.77;8.00;;;14.20;99.90;;;14.39;84.33;100646.09;4956659;28;20142;-70
2024/02/16 04:19:40;;;;;;;9.70;7.43;;;14.20;99.90;;;14.50;84.63;100648.50;4973904;28;20043;-70
2024/02/16 04:22:10;;;;;;;10.52;7.75;;;14.20;99.90;;;14.50;84.54;100654.69;4973902;28;20039;-70
2024/02/16 04:24:38;;;;;;;12.50;8.20;;;14.20;99.90;;;14.48;84.45;100652.06;4974143;28;20106;-70
2024/02/16 04:27:07;;;;;;;9.80;8.23;;;14.20;99.90;;;14.43;84.48;100653.97;4973486;28;20054;-70
2024/02/16 04:29:36;;;;;;;11.45;8.30;;;14.20;99.90;;;14.45;84.82;100651.28;4973669;28;20046;-70
2024/02/16 04:32:05;;;;;;;10.82;8.13;;;14.20;99.90;;;14.44;84.86;100657.47;4974187;28;20039;-70
2024/02/16 04:34:34;;;;;;;12.30;8.00;;;14.20;99.90;;;14.48;85.18;100660.97;4973646;28;20043;-70
2024/02/16 04:37:02;;;;;;;11.82;7.90;;;14.20;99.90;;;14.51;84.88;100659.13;4973826;28;20038;-70
2024/02/16 04:39:32;;;;;;;14.68;8.13;;;14.20;99.90;;;14.49;84.90;100652.94;4974121;28;20611;-69
2024/02/16 04:42:00;;;;;;;11.47;7.80;;;14.20;99.90;;;14.48;85.18;100652.06;4973445;28;20072;-69
2024/02/16 04:44:29;;;;;;;12.60;8.45;;;14.20;99.90;;;14.30;85.12;100628.53;4956229;28;20298;-70
2024/02/16 04:46:57;;;;;;;11.48;7.97;;;14.20;99.90;;;14.52;85.17;100657.34;4973335;28;20047;-70
2024/02/16 04:49:26;;;;;;;10.40;8.25;;;14.30;99.90;;;14.48;85.25;100651.19;4956052;28;20508;-70
2024/02/16 04:51:54;;;;;;;13.13;8.52;;;14.20;99.90;;;14.53;85.07;100657.28;4973296;28;20050;-69
2024/02/16 04:54:23;;;;;;;11.52;7.85;;;14.20;99.90;;;14.58;84.95;100667.81;4973492;28;20042;-69
2024/02/16 04:56:53;;;;;;;12.27;8.52;;;14.30;99.90;;;14.59;85.18;100665.13;4973026;28;20368;-69
2024/02/16 04:59:21;;;;;;;10.40;7.45;;;14.30;99.90;;;14.64;85.10;100657.91;4973094;28;20053;-69
2024/02/16 05:01:50;;;;;;;11.40;8.50;;;14.30;99.90;;;14.62;85.00;100657.06;4973801;28;20105;-70
2024/02/16 05:04:19;;;;;;;9.43;7.72;;;14.30;99.90;;;14.67;84.95;100660.50;4973071;28;20457;-70
2024/02/16 05:06:48;;;;;;;14.20;8.30;;;14.40;99.90;;;14.70;84.93;100664.84;4955850;28;20496;-70
2024/02/16 05:09:16;;;;;;;11.10;7.82;;;14.40;99.90;;;14.61;85.08;100660.66;4973244;28;20284;-70
2024/02/16 05:11:46;;;;;;;10.02;8.18;;;14.40;99.90;;;14.56;85.37;100649.22;4973150;28;20526;-71
2024/02/16 05:14:16;;;;;;;11.63;8.05;;;14.40;99.90;;;14.68;85.54;100656.91;4973298;28;20460;-70
2024/02/16 05:16:45;;;;;;;13.30;8.63;;;14.40;99.90;;;14.60;85.46;100634.03;4972689;28;20057;-69
2024/02/16 05:19:14;;;;;;;15.02;9.00;;;14.40;99.90;;;14.69;85.60;100661.31;4973278;28;20046;-70
2024/02/16 05:21:42;;;;;;;13.70;8.77;;;14.40;99.90;;;14.70;85.79;100671.06;4972962;28;20046;-71
2024/02/16 05:24:11;;;;;;;12.68;9.48;;;14.50;99.90;;;14.74;85.77;100664.75;4971958;28;20046;-70
2024/02/16 05:26:39;;;;;;;12.52;9.15;;;14.50;99.90;;;14.78;85.69;100661.09;4972357;28;20059;-69
2024/02/16 05:29:07;;;;;;;10.68;8.82;;;14.50;99.90;;;14.74;85.89;100675.41;4972592;28;20067;-70
2024/02/16 05:31:37;;;;;;;17.50;9.68;;;14.50;99.90;;;14.78;85.78;100666.44;4972406;28;20065;-70
2024/02/16 05:34:05;;;;;;;12.13;8.90;;;14.50;99.90;;;14.73;85.97;100673.63;4955505;28;20436;-70
2024/02/16 05:36:35;;;;;;;12.05;8.52;;;14.50;99.90;;;14.79;86.17;100673.50;4972710;28;20140;-70
2024/02/16 05:39:19;;;;;;;10.98;8.93;;;14.50;99.90;;;14.79;85.98;100668.16;4972624;28;20508;-69
2024/02/16 05:41:48;;;;;;;13.65;9.40;;;14.50;99.90;;;14.78;86.01;100684.19;4972713;28;20042;-69
2024/02/16 05:44:17;;;;;;;12.32;8.35;;;14.50;99.90;;;14.83;86.33;100696.47;4972351;28;20089;-70
2024/02/16 05:46:47;;;;;;;12.75;9.23;;;14.50;99.90;;;14.82;86.27;100688.53;4972847;28;20050;-70
2024/02/16 05:49:16;;;;;;;12.63;8.38;;;14.60;99.90;;;14.83;86.19;100683.16;4972427;28;20045;-70
2024/02/16 05:52:17;;;;;;;15.25;9.45;;;14.60;99.90;;;14.82;86.73;100684.09;4972592;28;20129;-70
2024/02/16 05:54:34;;;;;;;16.45;8.93;;;14.50;99.90;;;14.83;86.85;100682.28;4972229;28;20097;-69
2024/02/16 05:57:08;;;;;;;11.80;8.70;;;14.50;99.90;;;14.82;87.01;100680.53;4972205;28;20050;-70
2024/02/16 05:59:37;;;;;;;10.95;8.43;;;14.50;99.90;;;14.73;87.20;100681.63;4972282;28;20070;-69
2024/02/16 06:02:08;;;;;;;13.18;9.13;;;14.50;99.90;;;14.82;87.39;100686.75;4972542;28;20050;-70
2024/02/16 06:04:37;;;;;;;11.02;8.40;;;14.50;99.90;;;14.79;87.04;100689.47;4972259;28;20042;-69
2024/02/16 06:07:05;;;;;;;11.30;8.82;;;14.50;99.90;;;14.79;87.14;100689.47;4972660;28;20047;-70
2024/02/16 06:09:34;;;;;;;14.30;8.20;;;14.50;99.90;;;14.82;87.46;100699.19;4972484;28;20050;-70
2024/02/16 06:12:06;;;;;;;12.23;8.63;;;14.50;99.90;;;14.87;87.26;100698.16;4972247;28;20482;-69
2024/02/16 06:14:36;;;;;;;12.30;8.27;;;14.50;99.90;;;14.87;87.32;100702.59;4972644;28;20340;-70
2024/02/16 06:17:08;;;;;;;12.20;8.30;;;14.50;99.90;;;14.82;87.30;100710.72;4972011;28;20047;-70
2024/02/16 06:19:36;;;;;;;10.95;8.73;;;14.50;99.90;;;14.76;87.52;100686.00;4972202;28;20121;-70
2024/02/16 06:22:05;;;;;;;10.98;7.68;;;14.50;99.90;;;14.83;87.70;100706.25;4972029;28;20047;-71
2024/02/16 06:24:33;;;;;;;10.90;8.70;;;14.50;99.90;;;14.80;87.83;100701.00;4972009;28;20042;-69
2024/02/16 06:27:03;;;;;;;9.52;7.55;;;14.50;99.90;;;14.78;88.37;100709.03;4954320;28;20062;-70
2024/02/16 06:29:31;;;;;;;11.27;8.30;;;14.50;99.90;;;14.69;88.79;100711.91;4971549;28;20062;-70
2024/02/16 06:32:01;;;;;;;12.95;8.07;;;14.40;99.90;;;14.69;89.09;100708.38;4971706;28;20071;-70
2024/02/16 06:34:32;;;;;;;9.77;8.02;;;14.40;99.90;;;14.74;89.39;100710.03;4971783;28;20485;-71
2024/02/16 06:37:00;;;;;;;18.52;8.80;;;14.40;99.90;;;14.75;89.25;100716.22;4971457;28;20059;-70
2024/02/16 06:39:30;;;;;;;11.50;8.63;;;14.50;99.90;;;14.80;89.22;100723.19;4971341;28;20043;-70
2024/02/16 06:42:00;;;;;;;10.38;8.20;;;14.50;99.90;;;14.74;89.31;100711.78;4971742;28;20051;-70
2024/02/16 06:44:28;;;;;;;9.30;8.32;;;14.40;99.90;;;14.68;89.73;100722.59;4954225;28;20101;-70
2024/02/16 06:46:57;;;;;;;12.05;8.57;;;14.40;99.90;;;14.67;90.14;100729.72;4971635;28;20054;-70
2024/02/16 06:49:25;;;;;;;12.68;8.70;;;14.40;99.90;;;14.61;90.33;100727.19;4971616;28;20093;-70
2024/02/16 06:51:55;;;;;;;10.52;8.75;;;14.30;99.90;;;14.56;90.77;100728.19;4971551;28;20039;-70
2024/02/16 06:54:24;;;;;;;11.15;9.10;;;14.30;99.90;;;14.19;90.62;100666.91;4971601;28;20047;-70
2024/02/16 06:56:53;;;;;;;13.88;8.48;;;14.20;99.90;;;14.56;91.18;100726.41;4971344;28;20043;-69
2024/02/16 06:59:22;;;;;;;11.48;8.48;;;14.20;99.90;;;14.60;90.90;100729.88;4971899;28;20047;-71
2024/02/16 07:01:50;;;;;;;12.82;9.20;;;14.30;99.90;;;14.45;91.00;100752.41;4971078;28;20054;-71
2024/02/16 07:04:18;;;;;;;12.43;8.93;;;14.20;99.90;;;14.50;91.43;100736.34;4971648;28;20125;-69
2024/02/16 07:06:47;;;;;;;14.05;8.00;;;14.20;99.90;;;14.37;91.74;100722.41;4971112;28;20062;-69
2024/02/16 07:09:17;;;;;;;12.82;8.45;;;14.20;99.90;;;14.57;91.57;100749.47;4953923;28;20054;-71
2024/02/16 07:11:46;;;;;;;10.90;8.43;;;14.20;99.90;;;14.57;91.84;100756.56;4971347;28;20042;-70
2024/02/16 07:14:19;;;;;;;12.95;9.23;;;14.30;99.90;;;14.57;91.94;100757.47;4971293;28;20086;-70
2024/02/16 07:16:47;;;;;;;14.50;8.48;;;14.20;99.90;;;14.55;92.04;100763.72;4970756;28;20062;-70
2024/02/16 07:19:15;;;;;;;13.93;9.13;;;14.20;99.90;;;14.53;92.16;100771.75;4970963;28;20050;-69
2024/02/16 07:21:45;;;;;;;12.35;8.52;;;14.20;99.90;;;14.52;92.23;100775.31;4971033;28;20055;-71
2024/02/16 07:24:15;;;;;;;13.40;9.02;;;14.20;99.90;;;14.53;92.59;100790.38;4970955;28;20093;-70
2024/02/16 07:26:45;;;;;;;10.48;7.95;;;14.20;99.90;;;14.55;92.38;100787.69;4970976;28;20058;-69
2024/02/16 07:29:16;;;;;;;12.13;8.73;;;14.20;99.90;;;14.44;92.93;100791.44;4970980;28;20054;-70
2024/02/16 07:31:45;;;;;;;12.23;8.48;;;14.20;99.90;;;14.57;92.76;100804.50;4970967;28;20493;-69
2024/02/16 07:34:13;;;;;;;13.55;8.82;;;14.20;99.90;;;14.52;92.98;100803.72;4970924;28;20066;-70
2024/02/16 07:36:42;;;;;;;13.55;9.18;;;14.20;99.90;;;14.57;93.42;100824.00;4971234;28;20392;-71
2024/02/16 07:39:11;;;;;;;12.63;10.02;;;14.20;99.90;;;14.55;93.43;100811.63;4970700;28;20155;-71
2024/02/16 07:41:40;;;;;;;11.90;8.48;;;14.20;99.90;;;14.55;93.27;100823.16;4953660;28;20055;-70
2024/02/16 07:44:10;;;;;;;13.73;8.65;;;14.20;99.90;;;14.59;93.58;100826.63;4970627;28;20039;-70
2024/02/16 07:46:41;;;;;;;12.90;9.30;;;14.30;99.90;;;14.59;93.60;100829.28;4972187;28;20035;-70
2024/02/16 07:49:11;;;;;;;12.45;8.45;;;14.30;99.90;;;14.62;93.74;100837.19;4974930;28;20046;-70
2024/02/16 07:51:41;;;;;;;11.60;8.45;;;14.30;99.90;;;14.58;94.04;100832.84;4974605;28;20454;-70
2024/02/16 07:54:09;;;;;;;11.63;8.65;;;14.30;99.90;;;14.60;93.71;100828.38;4956807;28;20097;-70
2024/02/16 07:56:38;;;;;;;13.60;9.13;;;14.30;99.90;;;14.60;94.03;100831.91;4974460;28;20049;-71
2024/02/16 07:59:06;;;;;;;13.52;8.88;;;14.30;99.90;;;14.66;93.97;100842.44;4957262;28;20086;-69
2024/02/16 08:01:36;;;;;;;10.05;8.63;;;14.30;99.90;;;14.64;93.73;100844.25;4974220;28;20043;-71
2024/02/16 08:04:05;;;;;;;10.83;9.13;;;14.30;99.90;;;14.67;94.11;100846.88;4974435;28;20112;-70
2024/02/16 08:06:34;;;;;;;13.70;8.50;;;14.30;99.90;;;14.63;94.08;100837.19;4974167;28;20298;-70
2024/02/16 08:09:04;;;;;;;10.13;8.32;;;14.40;99.90;;;14.70;94.11;100836.13;4974423;28;20404;-69
2024/02/16 08:11:33;;;;;;;13.10;8.27;;;14.30;99.90;;;14.60;94.67;100826.59;4974269;28;20055;-69
2024/02/16 08:14:02;;;;;;;15.23;8.93;;;14.30;99.90;;;14.58;94.70;100828.41;4974152;28;20057;-70
2024/02/16 08:16:31;;;;;;;14.25;9.20;;;14.30;99.90;;;14.67;95.16;100840.66;4974019;28;20031;-70
2024/02/16 08:19:00;;;;;;;10.38;8.40;;;14.30;99.90;;;14.66;95.38;100858.41;4973934;28;20126;-70
2024/02/16 08:21:29;;;;;;;12.75;8.63;;;14.40;99.90;;;14.68;95.42;100875.22;4956869;28;20397;-70
2024/02/16 08:23:57;;;;;;;13.75;9.32;;;14.40;99.90;;;14.64;96.07;100867.31;4956876;28;20194;-70
2024/02/16 08:26:26;;;;;;;11.90;9.10;;;14.30;99.90;;;14.68;96.49;100883.22;4974195;28;20050;-70
2024/02/16 08:28:54;;;;;;;15.20;8.80;;;14.40;99.90;;;14.70;96.68;100886.72;4974480;28;20098;-70
2024/02/16 08:31:23;;;;;;;12.93;9.00;;;14.40;99.90;;;14.67;97.19;100877.94;4974024;28;20047;-70
2024/02/16 08:33:51;;;;;;;12.95;9.20;;;14.30;99.90;;;14.70;96.90;100886.72;4973890;28;20074;-69
2024/02/16 08:36:27;;;;;;;12.48;10.02;;;14.40;99.90;;;14.65;97.15;100885.06;4973864;28;20342;-70
2024/02/16 08:38:56;;;;;;;12.60;8.80;;;14.30;99.90;;;14.66;97.36;100885.03;4973740;28;20042;-69
2024/02/16 08:41:25;;;;;;;17.67;10.20;;;14.40;99.90;;;14.50;97.53;100899.56;4973843;28;20404;-70
2024/02/16 08:43:54;;;;;;;14.73;9.88;;;14.30;99.90;;;14.54;98.11;100900.41;4973751;28;20035;-69
2024/02/16 08:46:23;;;;;;;11.02;9.00;;;14.20;99.90;;;14.42;98.17;100897.03;4973486;28;20042;-69
2024/02/16 08:48:52;;;;;;;16.45;10.63;;;14.20;99.90;;;14.63;98.36;100916.16;4973769;28;20047;-69
2024/02/16 08:51:22;;;;;;;12.50;9.70;;;14.30;99.90;;;14.60;98.39;100922.44;4973607;28;20277;-69
2024/02/16 08:53:50;;;;;;;16.77;10.52;;;14.30;99.90;;;14.64;98.70;100929.44;4973293;28;20101;-70
2024/02/16 08:56:19;;;;;;;13.30;9.85;;;14.30;99.90;;;14.68;98.46;100939.13;4973247;28;20042;-70
2024/02/16 08:58:47;;;;;;;17.23;9.93;;;14.30;99.90;;;14.57;98.85;100937.59;4972288;28;20110;-70
2024/02/16 09:01:16;;;;;;;14.68;10.07;;;14.30;99.90;;;14.57;99.05;100943.78;4973565;28;20106;-71
2024/02/16 09:03:45;;;;;;;16.25;10.20;;;14.30;99.90;;;14.58;99.35;100948.19;4973169;28;20046;-69
2024/02/16 09:06:14;;;;;;;16.63;10.35;;;14.30;99.90;;;14.58;99.24;100945.53;4973009;28;20042;-70
2024/02/16 09:08:43;;;;;;;16.58;10.48;;;14.20;99.90;;;14.48;99.29;100940.44;4972943;28;20049;-70
2024/02/16 09:11:14;;;;;;;20.07;11.00;;;14.20;99.90;;;14.54;99.59;100954.50;4973306;28;20426;-69
2024/02/16 09:13:42;;;;;;;16.65;10.48;;;14.20;99.90;;;14.61;99.23;100950.81;4973025;28;20041;-70
2024/02/16 09:16:11;;;;;;;18.63;11.00;;;14.30;99.90;;;14.50;99.19;100935.97;4972796;28;20039;-70
2024/02/16 09:18:39;;;;;;;22.50;11.82;;;14.30;99.90;;;14.53;99.18;100950.09;4972804;28;20562;-70
2024/02/16 09:21:08;;;;;;;21.90;12.45;;;14.30;99.90;;;14.44;99.84;100968.88;4972770;28;20066;-69
2024/02/16 09:23:38;;;;;;;25.65;12.55;;;14.20;99.90;;;14.44;100.00;100971.53;4972716;28;20054;-70
2024/02/16 09:26:10;;;;;;;;;;;14.10;99.90;;;14.55;100.00;100982.88;4972923;28;20180;-71
2024/02/16 09:28:42;;;;;;;26.50;14.07;;;14.20;99.90;;;14.52;100.00;100985.56;4972732;28;19925;-69
2024/02/16 09:31:15;;;;;;;25.90;13.68;;;14.20;99.90;;;14.53;100.00;100989.13;4972557;28;20506;-69
2024/02/16 09:33:43;;;;;;;30.45;15.73;;;14.30;99.90;;;14.57;100.00;101010.34;4955382;28;20043;-69
2024/02/16 09:36:12;;;;;;;30.73;15.07;;;14.30;99.90;;;14.53;100.00;101010.44;4972301;28;20469;-69
2024/02/16 09:38:41;;;;;;;29.05;15.68;;;14.20;99.90;;;14.55;100.00;101008.63;4972592;28;20049;-70
2024/02/16 09:41:11;;;;;;;30.50;17.33;;;14.20;99.90;;;14.56;100.00;101011.25;4972760;28;20121;-69
2024/02/16 09:43:40;;;;;;;39.33;17.15;;;14.20;99.90;;;13.85;100.00;100911.41;4972553;28;20100;-70
2024/02/16 09:46:10;;;;;;;37.13;17.60;;;14.20;99.90;;;14.50;100.00;101024.66;4972042;28;20050;-69
2024/02/16 09:48:43;;;;;;;41.85;18.23;;;14.20;99.90;;;14.49;100.00;101062.84;4972491;28;20082;-70
2024/02/16 09:51:12;;;;;;;33.13;17.63;;;14.20;99.90;;;14.24;100.00;101045.50;4955038;28;20062;-70
2024/02/16 09:53:41;;;;;;;37.67;18.15;;;14.10;99.90;;;14.41;100.00;101046.13;4972156;28;20043;-69
2024/02/16 09:56:11;;;;;;;35.28;18.35;;;14.10;99.90;;;14.44;100.00;101049.59;4972046;28;20063;-71
2024/02/16 09:58:39;;;;;;;33.57;18.43;;;14.10;99.90;;;14.41;100.00;101062.09;4972033;28;20091;-70
2024/02/16 10:01:08;;;;;;;34.95;17.90;;;14.10;99.90;;;14.49;100.00;101062.84;4972107;28;20089;-70
2024/02/16 10:03:36;;;;;;;34.33;18.17;;;14.10;99.90;;;14.50;100.00;101061.91;4971972;28;20117;-70
2024/02/16 10:06:10;;;;;;;30.67;17.88;;;14.10;99.90;;;14.51;100.00;101073.47;4972446;28;20053;-70
2024/02/16 10:08:50;;;;;;;31.83;17.95;;;14.20;99.90;;;14.50;100.00;101082.34;4971974;28;20047;-71
2024/02/16 10:11:24;;;;;;;28.52;17.13;;;14.20;99.90;;;14.49;100.00;101086.81;4971762;28;20167;-70
2024/02/16 10:13:58;;;;;;;28.23;16.15;;;14.20;99.90;;;14.45;100.00;101085.97;4971947;28;20422;-70
2024/02/16 10:16:28;;;;;;;25.42;16.05;;;14.20;99.90;;;14.48;100.00;101096.56;4972021;28;20054;-70